sensor_id;sensor_type;location;lat;lon;timestamp;P1;durP1;ratioP1;P2;durP2;ratioP2
9970;SDS011;5026;51.494;11.974;2023-06-26T00:01:31;5.05;;;4.20;;
9970;SDS011;5026;51.494;11.974;2023-06-26T00:03:58;4.70;;;4.20;;
9970;SDS011;5026;51.494;11.974;2023-06-26T00:06:26;6.43;;;4.75;;
9970;SDS011;5026;51.494;11.974;2023-06-26T00:08:55;4.75;;;4.00;;
9970;SDS011;5026;51.494;11.974;2023-06-26T00:11:24;5.53;;;4.72;;
9970;SDS011;5026;51.494;11.974;2023-06-26T00:13:52;5.57;;;4.22;;
9970;SDS011;5026;51.494;11.974;2023-06-26T00:16:19;7.78;;;4.60;;
9970;SDS011;5026;51.494;11.974;2023-06-26T00:18:46;5.00;;;4.32;;
9970;SDS011;5026;51.494;11.974;2023-06-26T00:21:13;4.65;;;4.03;;
9970;SDS011;5026;51.494;11.974;2023-06-26T00:23:39;6.47;;;4.35;;
9970;SDS011;5026;51.494;11.974;2023-06-26T00:26:08;6.70;;;4.60;;
9970;SDS011;5026;51.494;11.974;2023-06-26T00:28:35;4.47;;;4.07;;
9970;SDS011;5026;51.494;11.974;2023-06-26T00:31:02;4.80;;;4.05;;
9970;SDS011;5026;51.494;11.974;2023-06-26T00:33:30;6.05;;;4.38;;
9970;SDS011;5026;51.494;11.974;2023-06-26T00:35:56;5.22;;;4.55;;
9970;SDS011;5026;51.494;11.974;2023-06-26T00:38:23;5.60;;;4.35;;
9970;SDS011;5026;51.494;11.974;2023-06-26T00:40:50;7.07;;;4.60;;
9970;SDS011;5026;51.494;11.974;2023-06-26T00:43:18;5.13;;;4.63;;
9970;SDS011;5026;51.494;11.974;2023-06-26T00:45:45;6.28;;;4.57;;
9970;SDS011;5026;51.494;11.974;2023-06-26T00:48:13;6.78;;;4.55;;
9970;SDS011;5026;51.494;11.974;2023-06-26T00:50:40;6.22;;;4.50;;
9970;SDS011;5026;51.494;11.974;2023-06-26T00:53:09;10.30;;;4.80;;
9970;SDS011;5026;51.494;11.974;2023-06-26T00:55:37;5.90;;;5.03;;
9970;SDS011;5026;51.494;11.974;2023-06-26T00:58:04;6.55;;;4.55;;
9970;SDS011;5026;51.494;11.974;2023-06-26T01:00:33;6.30;;;4.63;;
9970;SDS011;5026;51.494;11.974;2023-06-26T01:03:00;7.00;;;4.75;;
9970;SDS011;5026;51.494;11.974;2023-06-26T01:05:27;4.90;;;4.45;;
9970;SDS011;5026;51.494;11.974;2023-06-26T01:07:54;6.97;;;4.78;;
9970;SDS011;5026;51.494;11.974;2023-06-26T01:10:23;6.32;;;4.25;;
9970;SDS011;5026;51.494;11.974;2023-06-26T01:12:52;6.65;;;4.60;;
9970;SDS011;5026;51.494;11.974;2023-06-26T01:15:19;8.13;;;4.80;;
9970;SDS011;5026;51.494;11.974;2023-06-26T01:17:48;7.65;;;4.70;;
9970;SDS011;5026;51.494;11.974;2023-06-26T01:20:16;6.80;;;4.80;;
9970;SDS011;5026;51.494;11.974;2023-06-26T01:22:47;6.70;;;4.38;;
9970;SDS011;5026;51.494;11.974;2023-06-26T01:25:25;7.88;;;5.03;;
9970;SDS011;5026;51.494;11.974;2023-06-26T01:28:05;7.93;;;4.70;;
9970;SDS011;5026;51.494;11.974;2023-06-26T01:30:32;8.45;;;4.55;;
9970;SDS011;5026;51.494;11.974;2023-06-26T01:33:01;5.50;;;4.75;;
9970;SDS011;5026;51.494;11.974;2023-06-26T01:35:29;8.10;;;5.07;;
9970;SDS011;5026;51.494;11.974;2023-06-26T01:38:10;10.50;;;5.10;;
9970;SDS011;5026;51.494;11.974;2023-06-26T01:40:38;8.00;;;4.70;;
9970;SDS011;5026;51.494;11.974;2023-06-26T01:43:06;6.40;;;5.03;;
9970;SDS011;5026;51.494;11.974;2023-06-26T01:45:41;7.28;;;4.35;;
9970;SDS011;5026;51.494;11.974;2023-06-26T01:48:10;6.28;;;4.88;;
9970;SDS011;5026;51.494;11.974;2023-06-26T07:41:50;7.15;;;4.70;;
9970;SDS011;5026;51.494;11.974;2023-06-26T07:44:17;6.30;;;4.95;;
9970;SDS011;5026;51.494;11.974;2023-06-26T07:46:45;5.50;;;5.00;;
9970;SDS011;5026;51.494;11.974;2023-06-26T07:49:15;5.35;;;4.50;;
9970;SDS011;5026;51.494;11.974;2023-06-26T07:51:42;7.38;;;4.80;;
9970;SDS011;5026;51.494;11.974;2023-06-26T07:54:09;5.25;;;4.70;;
9970;SDS011;5026;51.494;11.974;2023-06-26T07:56:51;5.95;;;4.60;;
9970;SDS011;5026;51.494;11.974;2023-06-26T07:59:21;6.90;;;4.95;;
9970;SDS011;5026;51.494;11.974;2023-06-26T08:01:48;6.18;;;4.20;;
9970;SDS011;5026;51.494;11.974;2023-06-26T08:04:17;4.80;;;4.32;;
9970;SDS011;5026;51.494;11.974;2023-06-26T08:06:45;5.75;;;4.22;;
9970;SDS011;5026;51.494;11.974;2023-06-26T08:09:15;6.38;;;4.82;;
9970;SDS011;5026;51.494;11.974;2023-06-26T08:11:43;4.75;;;4.38;;
9970;SDS011;5026;51.494;11.974;2023-06-26T08:14:11;5.28;;;4.78;;
9970;SDS011;5026;51.494;11.974;2023-06-26T08:16:38;4.70;;;4.13;;
9970;SDS011;5026;51.494;11.974;2023-06-26T08:19:06;4.85;;;4.40;;
9970;SDS011;5026;51.494;11.974;2023-06-26T08:21:33;6.40;;;4.75;;
9970;SDS011;5026;51.494;11.974;2023-06-26T08:24:00;5.35;;;4.35;;
9970;SDS011;5026;51.494;11.974;2023-06-26T08:26:27;4.78;;;4.07;;
9970;SDS011;5026;51.494;11.974;2023-06-26T08:28:54;5.57;;;4.18;;
9970;SDS011;5026;51.494;11.974;2023-06-26T08:31:23;4.43;;;4.13;;
9970;SDS011;5026;51.494;11.974;2023-06-26T08:33:50;5.10;;;4.20;;
9970;SDS011;5026;51.494;11.974;2023-06-26T08:36:17;4.70;;;4.30;;
9970;SDS011;5026;51.494;11.974;2023-06-26T08:38:44;5.68;;;4.38;;
9970;SDS011;5026;51.494;11.974;2023-06-26T08:41:11;4.57;;;4.15;;
9970;SDS011;5026;51.494;11.974;2023-06-26T08:43:38;5.30;;;4.40;;
9970;SDS011;5026;51.494;11.974;2023-06-26T08:46:05;5.07;;;4.25;;
9970;SDS011;5026;51.494;11.974;2023-06-26T08:48:33;4.95;;;4.10;;
9970;SDS011;5026;51.494;11.974;2023-06-26T08:51:03;4.72;;;4.22;;
9970;SDS011;5026;51.494;11.974;2023-06-26T08:53:37;5.03;;;4.55;;
9970;SDS011;5026;51.494;11.974;2023-06-26T08:56:11;4.60;;;4.20;;
9970;SDS011;5026;51.494;11.974;2023-06-26T08:58:41;4.97;;;4.45;;
9970;SDS011;5026;51.494;11.974;2023-06-26T09:01:08;5.30;;;4.53;;
9970;SDS011;5026;51.494;11.974;2023-06-26T09:03:38;4.60;;;4.20;;
9970;SDS011;5026;51.494;11.974;2023-06-26T09:06:06;5.72;;;4.30;;
9970;SDS011;5026;51.494;11.974;2023-06-26T09:08:34;4.75;;;4.35;;
9970;SDS011;5026;51.494;11.974;2023-06-26T09:11:01;5.72;;;4.32;;
9970;SDS011;5026;51.494;11.974;2023-06-26T09:13:29;4.57;;;4.18;;
9970;SDS011;5026;51.494;11.974;2023-06-26T09:15:57;4.57;;;3.85;;
9970;SDS011;5026;51.494;11.974;2023-06-26T09:18:24;5.82;;;4.28;;
9970;SDS011;5026;51.494;11.974;2023-06-26T09:20:52;4.82;;;4.07;;
9970;SDS011;5026;51.494;11.974;2023-06-26T09:23:21;4.82;;;4.35;;
9970;SDS011;5026;51.494;11.974;2023-06-26T09:25:48;4.95;;;4.45;;
9970;SDS011;5026;51.494;11.974;2023-06-26T09:28:17;4.47;;;4.03;;
9970;SDS011;5026;51.494;11.974;2023-06-26T09:30:47;4.40;;;4.10;;
9970;SDS011;5026;51.494;11.974;2023-06-26T09:33:20;4.68;;;4.10;;
9970;SDS011;5026;51.494;11.974;2023-06-26T09:35:47;4.22;;;3.90;;
9970;SDS011;5026;51.494;11.974;2023-06-26T09:38:16;4.90;;;4.50;;
9970;SDS011;5026;51.494;11.974;2023-06-26T09:40:43;5.75;;;3.88;;
9970;SDS011;5026;51.494;11.974;2023-06-26T09:43:12;4.20;;;3.90;;
9970;SDS011;5026;51.494;11.974;2023-06-26T09:45:40;4.00;;;3.70;;
9970;SDS011;5026;51.494;11.974;2023-06-26T09:48:07;7.57;;;3.97;;
9970;SDS011;5026;51.494;11.974;2023-06-26T09:50:34;5.32;;;4.00;;
9970;SDS011;5026;51.494;11.974;2023-06-26T09:53:06;4.75;;;4.10;;
9970;SDS011;5026;51.494;11.974;2023-06-26T09:55:37;7.05;;;4.22;;
9970;SDS011;5026;51.494;11.974;2023-06-26T09:58:04;4.90;;;4.35;;
9970;SDS011;5026;51.494;11.974;2023-06-26T10:00:32;4.30;;;3.55;;
9970;SDS011;5026;51.494;11.974;2023-06-26T10:02:59;5.65;;;4.45;;
9970;SDS011;5026;51.494;11.974;2023-06-26T10:05:27;4.60;;;4.20;;
9970;SDS011;5026;51.494;11.974;2023-06-26T10:07:54;4.80;;;4.40;;
9970;SDS011;5026;51.494;11.974;2023-06-26T10:10:22;4.72;;;4.32;;
9970;SDS011;5026;51.494;11.974;2023-06-26T10:12:54;4.50;;;4.10;;
9970;SDS011;5026;51.494;11.974;2023-06-26T10:15:25;9.05;;;4.50;;
9970;SDS011;5026;51.494;11.974;2023-06-26T10:17:55;5.15;;;4.40;;
9970;SDS011;5026;51.494;11.974;2023-06-26T10:20:23;5.07;;;4.03;;
9970;SDS011;5026;51.494;11.974;2023-06-26T10:22:51;4.90;;;4.50;;
9970;SDS011;5026;51.494;11.974;2023-06-26T10:25:21;6.85;;;4.60;;
9970;SDS011;5026;51.494;11.974;2023-06-26T10:27:52;5.97;;;4.20;;
9970;SDS011;5026;51.494;11.974;2023-06-26T10:30:24;5.22;;;4.72;;
9970;SDS011;5026;51.494;11.974;2023-06-26T10:32:54;5.15;;;4.75;;
9970;SDS011;5026;51.494;11.974;2023-06-26T10:35:21;5.50;;;5.00;;
9970;SDS011;5026;51.494;11.974;2023-06-26T10:37:50;4.78;;;4.35;;
9970;SDS011;5026;51.494;11.974;2023-06-26T10:40:21;5.38;;;4.88;;
9970;SDS011;5026;51.494;11.974;2023-06-26T10:42:52;4.93;;;4.28;;
9970;SDS011;5026;51.494;11.974;2023-06-26T10:45:33;5.00;;;4.53;;
9970;SDS011;5026;51.494;11.974;2023-06-26T10:48:00;5.22;;;4.20;;
9970;SDS011;5026;51.494;11.974;2023-06-26T10:50:28;5.78;;;4.63;;
9970;SDS011;5026;51.494;11.974;2023-06-26T10:53:09;5.72;;;5.22;;
9970;SDS011;5026;51.494;11.974;2023-06-26T10:55:41;4.88;;;4.47;;
9970;SDS011;5026;51.494;11.974;2023-06-26T10:58:30;5.32;;;4.63;;
9970;SDS011;5026;51.494;11.974;2023-06-26T11:03:41;7.03;;;5.03;;
9970;SDS011;5026;51.494;11.974;2023-06-26T11:06:10;6.85;;;5.10;;
9970;SDS011;5026;51.494;11.974;2023-06-26T11:08:43;5.60;;;5.00;;
9970;SDS011;5026;51.494;11.974;2023-06-26T11:11:11;6.00;;;5.35;;
9970;SDS011;5026;51.494;11.974;2023-06-26T11:13:40;5.53;;;4.97;;
9970;SDS011;5026;51.494;11.974;2023-06-26T11:16:07;7.80;;;4.80;;
9970;SDS011;5026;51.494;11.974;2023-06-26T11:18:34;5.20;;;4.70;;
9970;SDS011;5026;51.494;11.974;2023-06-26T11:21:04;5.35;;;4.85;;
9970;SDS011;5026;51.494;11.974;2023-06-26T11:23:32;5.25;;;4.75;;
9970;SDS011;5026;51.494;11.974;2023-06-26T11:26:12;5.95;;;4.70;;
9970;SDS011;5026;51.494;11.974;2023-06-26T11:28:46;5.90;;;4.68;;
9970;SDS011;5026;51.494;11.974;2023-06-26T11:31:24;5.18;;;4.68;;
9970;SDS011;5026;51.494;11.974;2023-06-26T11:33:52;5.30;;;4.80;;
9970;SDS011;5026;51.494;11.974;2023-06-26T11:36:19;8.40;;;5.18;;
9970;SDS011;5026;51.494;11.974;2023-06-26T11:38:52;6.20;;;5.38;;
9970;SDS011;5026;51.494;11.974;2023-06-26T11:41:20;5.57;;;4.95;;
9970;SDS011;5026;51.494;11.974;2023-06-26T11:43:48;6.63;;;5.38;;
9970;SDS011;5026;51.494;11.974;2023-06-26T11:46:18;7.55;;;4.97;;
9970;SDS011;5026;51.494;11.974;2023-06-26T11:48:45;5.20;;;4.70;;
9970;SDS011;5026;51.494;11.974;2023-06-26T11:51:13;8.00;;;5.10;;
9970;SDS011;5026;51.494;11.974;2023-06-26T11:53:40;12.25;;;5.13;;
9970;SDS011;5026;51.494;11.974;2023-06-26T11:56:08;5.78;;;4.90;;
9970;SDS011;5026;51.494;11.974;2023-06-26T11:58:36;7.18;;;4.88;;
9970;SDS011;5026;51.494;11.974;2023-06-26T12:01:21;5.85;;;4.88;;
9970;SDS011;5026;51.494;11.974;2023-06-26T12:03:48;6.13;;;5.13;;
9970;SDS011;5026;51.494;11.974;2023-06-26T12:06:15;5.63;;;4.75;;
9970;SDS011;5026;51.494;11.974;2023-06-26T12:08:43;5.47;;;4.65;;
9970;SDS011;5026;51.494;11.974;2023-06-26T12:11:10;5.03;;;4.47;;
9970;SDS011;5026;51.494;11.974;2023-06-26T12:13:38;6.95;;;4.93;;
9970;SDS011;5026;51.494;11.974;2023-06-26T12:16:06;7.68;;;5.25;;
9970;SDS011;5026;51.494;11.974;2023-06-26T12:18:35;5.93;;;4.78;;
9970;SDS011;5026;51.494;11.974;2023-06-26T12:21:02;5.85;;;4.90;;
9970;SDS011;5026;51.494;11.974;2023-06-26T12:23:32;5.25;;;4.70;;
9970;SDS011;5026;51.494;11.974;2023-06-26T12:26:15;5.80;;;4.78;;
9970;SDS011;5026;51.494;11.974;2023-06-26T12:28:44;5.65;;;5.05;;
9970;SDS011;5026;51.494;11.974;2023-06-26T12:31:14;4.95;;;4.45;;
9970;SDS011;5026;51.494;11.974;2023-06-26T12:33:43;4.90;;;4.38;;
9970;SDS011;5026;51.494;11.974;2023-06-26T12:36:11;6.88;;;5.30;;
9970;SDS011;5026;51.494;11.974;2023-06-26T12:38:38;5.47;;;4.97;;
9970;SDS011;5026;51.494;11.974;2023-06-26T12:41:05;6.45;;;5.25;;
9970;SDS011;5026;51.494;11.974;2023-06-26T12:43:39;5.13;;;4.63;;
9970;SDS011;5026;51.494;11.974;2023-06-26T12:46:06;4.80;;;4.40;;
9970;SDS011;5026;51.494;11.974;2023-06-26T12:48:36;6.22;;;5.00;;
9970;SDS011;5026;51.494;11.974;2023-06-26T12:51:09;7.03;;;4.45;;
9970;SDS011;5026;51.494;11.974;2023-06-26T12:53:37;7.35;;;4.25;;
9970;SDS011;5026;51.494;11.974;2023-06-26T12:56:05;5.82;;;4.90;;
9970;SDS011;5026;51.494;11.974;2023-06-26T12:58:32;5.30;;;4.80;;
9970;SDS011;5026;51.494;11.974;2023-06-26T13:00:59;5.68;;;5.05;;
9970;SDS011;5026;51.494;11.974;2023-06-26T13:03:26;4.72;;;4.32;;
9970;SDS011;5026;51.494;11.974;2023-06-26T13:05:53;5.72;;;5.00;;
9970;SDS011;5026;51.494;11.974;2023-06-26T13:08:22;6.05;;;4.80;;
9970;SDS011;5026;51.494;11.974;2023-06-26T13:10:49;6.10;;;4.78;;
9970;SDS011;5026;51.494;11.974;2023-06-26T13:13:16;6.05;;;4.43;;
9970;SDS011;5026;51.494;11.974;2023-06-26T13:15:43;6.00;;;4.88;;
9970;SDS011;5026;51.494;11.974;2023-06-26T13:18:10;6.78;;;5.03;;
9970;SDS011;5026;51.494;11.974;2023-06-26T13:20:37;5.43;;;4.80;;
9970;SDS011;5026;51.494;11.974;2023-06-26T13:23:04;5.68;;;4.75;;
9970;SDS011;5026;51.494;11.974;2023-06-26T13:25:33;4.63;;;4.22;;
9970;SDS011;5026;51.494;11.974;2023-06-26T13:28:00;6.20;;;4.90;;
9970;SDS011;5026;51.494;11.974;2023-06-26T13:30:27;5.32;;;4.40;;
9970;SDS011;5026;51.494;11.974;2023-06-26T13:32:55;8.50;;;5.53;;
9970;SDS011;5026;51.494;11.974;2023-06-26T13:35:22;11.25;;;6.72;;
9970;SDS011;5026;51.494;11.974;2023-06-26T13:37:49;9.45;;;7.40;;
9970;SDS011;5026;51.494;11.974;2023-06-26T13:40:16;9.93;;;7.35;;
9970;SDS011;5026;51.494;11.974;2023-06-26T13:42:45;17.73;;;7.10;;
9970;SDS011;5026;51.494;11.974;2023-06-26T13:45:12;12.25;;;6.78;;
9970;SDS011;5026;51.494;11.974;2023-06-26T13:47:39;10.90;;;7.53;;
9970;SDS011;5026;51.494;11.974;2023-06-26T13:50:07;13.68;;;7.47;;
9970;SDS011;5026;51.494;11.974;2023-06-26T13:52:34;13.48;;;7.28;;
9970;SDS011;5026;51.494;11.974;2023-06-26T13:55:01;12.70;;;7.20;;
9970;SDS011;5026;51.494;11.974;2023-06-26T13:57:30;7.72;;;6.45;;
9970;SDS011;5026;51.494;11.974;2023-06-26T13:59:59;10.93;;;6.50;;
9970;SDS011;5026;51.494;11.974;2023-06-26T14:02:28;8.98;;;6.65;;
9970;SDS011;5026;51.494;11.974;2023-06-26T14:04:55;11.70;;;6.90;;
9970;SDS011;5026;51.494;11.974;2023-06-26T14:07:22;9.85;;;7.05;;
9970;SDS011;5026;51.494;11.974;2023-06-26T14:09:49;12.73;;;6.97;;
9970;SDS011;5026;51.494;11.974;2023-06-26T14:12:16;12.32;;;6.50;;
9970;SDS011;5026;51.494;11.974;2023-06-26T14:14:43;9.40;;;6.20;;
9970;SDS011;5026;51.494;11.974;2023-06-26T14:17:12;8.70;;;6.40;;
9970;SDS011;5026;51.494;11.974;2023-06-26T14:19:41;12.32;;;6.68;;
9970;SDS011;5026;51.494;11.974;2023-06-26T14:22:08;11.57;;;6.50;;
9970;SDS011;5026;51.494;11.974;2023-06-26T14:24:35;10.90;;;7.88;;
9970;SDS011;5026;51.494;11.974;2023-06-26T14:27:02;7.88;;;6.00;;
9970;SDS011;5026;51.494;11.974;2023-06-26T14:29:30;12.55;;;6.38;;
9970;SDS011;5026;51.494;11.974;2023-06-26T14:31:57;10.15;;;7.20;;
9970;SDS011;5026;51.494;11.974;2023-06-26T14:34:25;7.88;;;6.28;;
9970;SDS011;5026;51.494;11.974;2023-06-26T14:36:52;8.05;;;6.72;;
9970;SDS011;5026;51.494;11.974;2023-06-26T14:39:19;9.32;;;7.05;;
9970;SDS011;5026;51.494;11.974;2023-06-26T14:41:46;8.77;;;6.93;;
9970;SDS011;5026;51.494;11.974;2023-06-26T14:44:13;9.40;;;7.32;;
9970;SDS011;5026;51.494;11.974;2023-06-26T14:46:40;8.68;;;6.05;;
9970;SDS011;5026;51.494;11.974;2023-06-26T14:49:08;13.02;;;7.32;;
9970;SDS011;5026;51.494;11.974;2023-06-26T14:51:36;9.80;;;6.28;;
9970;SDS011;5026;51.494;11.974;2023-06-26T14:54:04;10.57;;;6.70;;
9970;SDS011;5026;51.494;11.974;2023-06-26T14:56:32;11.55;;;7.03;;
9970;SDS011;5026;51.494;11.974;2023-06-26T14:58:59;7.63;;;6.38;;
9970;SDS011;5026;51.494;11.974;2023-06-26T15:01:26;9.48;;;6.60;;
9970;SDS011;5026;51.494;11.974;2023-06-26T15:03:52;10.23;;;6.60;;
9970;SDS011;5026;51.494;11.974;2023-06-26T15:06:20;10.60;;;6.78;;
9970;SDS011;5026;51.494;11.974;2023-06-26T15:08:49;9.35;;;6.18;;
9970;SDS011;5026;51.494;11.974;2023-06-26T15:11:17;9.57;;;6.80;;
9970;SDS011;5026;51.494;11.974;2023-06-26T15:13:44;9.10;;;6.55;;
9970;SDS011;5026;51.494;11.974;2023-06-26T15:16:11;8.27;;;6.38;;
9970;SDS011;5026;51.494;11.974;2023-06-26T15:18:39;8.98;;;6.97;;
9970;SDS011;5026;51.494;11.974;2023-06-26T15:21:07;7.50;;;5.95;;
9970;SDS011;5026;51.494;11.974;2023-06-26T15:23:34;14.18;;;6.40;;
9970;SDS011;5026;51.494;11.974;2023-06-26T15:26:03;10.40;;;5.95;;
9970;SDS011;5026;51.494;11.974;2023-06-26T15:28:30;8.27;;;5.82;;
9970;SDS011;5026;51.494;11.974;2023-06-26T15:30:57;7.60;;;6.00;;
9970;SDS011;5026;51.494;11.974;2023-06-26T15:33:25;8.60;;;5.72;;
9970;SDS011;5026;51.494;11.974;2023-06-26T15:35:52;10.68;;;6.28;;
9970;SDS011;5026;51.494;11.974;2023-06-26T15:38:19;11.07;;;6.70;;
9970;SDS011;5026;51.494;11.974;2023-06-26T15:40:46;10.95;;;6.22;;
9970;SDS011;5026;51.494;11.974;2023-06-26T15:43:15;8.20;;;6.18;;
9970;SDS011;5026;51.494;11.974;2023-06-26T15:45:42;12.25;;;6.70;;
9970;SDS011;5026;51.494;11.974;2023-06-26T15:48:09;14.55;;;6.35;;
9970;SDS011;5026;51.494;11.974;2023-06-26T15:50:36;7.60;;;6.53;;
9970;SDS011;5026;51.494;11.974;2023-06-26T15:53:04;9.45;;;6.50;;
9970;SDS011;5026;51.494;11.974;2023-06-26T15:55:31;9.60;;;6.50;;
9970;SDS011;5026;51.494;11.974;2023-06-26T15:57:58;9.13;;;7.22;;
9970;SDS011;5026;51.494;11.974;2023-06-26T16:00:27;13.02;;;6.95;;
9970;SDS011;5026;51.494;11.974;2023-06-26T16:02:54;9.65;;;7.00;;
9970;SDS011;5026;51.494;11.974;2023-06-26T16:05:21;8.27;;;6.90;;
9970;SDS011;5026;51.494;11.974;2023-06-26T16:07:48;11.60;;;7.63;;
9970;SDS011;5026;51.494;11.974;2023-06-26T16:10:15;9.95;;;7.70;;
9970;SDS011;5026;51.494;11.974;2023-06-26T16:12:42;10.25;;;7.35;;
9970;SDS011;5026;51.494;11.974;2023-06-26T16:15:09;10.40;;;7.65;;
9970;SDS011;5026;51.494;11.974;2023-06-26T16:17:38;10.57;;;8.00;;
9970;SDS011;5026;51.494;11.974;2023-06-26T16:20:05;10.07;;;7.68;;
9970;SDS011;5026;51.494;11.974;2023-06-26T16:22:33;10.50;;;7.28;;
9970;SDS011;5026;51.494;11.974;2023-06-26T16:25:00;8.63;;;6.32;;
9970;SDS011;5026;51.494;11.974;2023-06-26T16:27:27;11.10;;;6.07;;
9970;SDS011;5026;51.494;11.974;2023-06-26T16:29:54;8.98;;;5.57;;
9970;SDS011;5026;51.494;11.974;2023-06-26T16:32:22;7.45;;;5.75;;
9970;SDS011;5026;51.494;11.974;2023-06-26T16:34:51;7.53;;;5.10;;
9970;SDS011;5026;51.494;11.974;2023-06-26T16:37:18;7.00;;;4.82;;
9970;SDS011;5026;51.494;11.974;2023-06-26T16:39:45;9.15;;;4.90;;
9970;SDS011;5026;51.494;11.974;2023-06-26T16:42:12;6.80;;;4.32;;
9970;SDS011;5026;51.494;11.974;2023-06-26T16:44:39;5.07;;;4.40;;
9970;SDS011;5026;51.494;11.974;2023-06-26T16:47:06;8.55;;;4.30;;
9970;SDS011;5026;51.494;11.974;2023-06-26T16:49:34;8.82;;;4.30;;
9970;SDS011;5026;51.494;11.974;2023-06-26T16:52:02;5.35;;;3.83;;
9970;SDS011;5026;51.494;11.974;2023-06-26T16:54:29;7.15;;;4.18;;
9970;SDS011;5026;51.494;11.974;2023-06-26T16:56:56;10.55;;;3.85;;
9970;SDS011;5026;51.494;11.974;2023-06-26T16:59:25;6.90;;;4.10;;
9970;SDS011;5026;51.494;11.974;2023-06-26T17:01:52;6.55;;;4.10;;
9970;SDS011;5026;51.494;11.974;2023-06-26T17:04:21;5.95;;;3.92;;
9970;SDS011;5026;51.494;11.974;2023-06-26T17:06:48;7.13;;;4.00;;
9970;SDS011;5026;51.494;11.974;2023-06-26T17:09:17;9.23;;;5.65;;
9970;SDS011;5026;51.494;11.974;2023-06-26T17:11:44;5.47;;;4.30;;
9970;SDS011;5026;51.494;11.974;2023-06-26T17:14:12;8.18;;;3.63;;
9970;SDS011;5026;51.494;11.974;2023-06-26T17:16:39;7.68;;;3.90;;
9970;SDS011;5026;51.494;11.974;2023-06-26T17:19:06;3.72;;;3.22;;
9970;SDS011;5026;51.494;11.974;2023-06-26T17:21:33;6.75;;;3.30;;
9970;SDS011;5026;51.494;11.974;2023-06-26T17:24:02;6.80;;;3.45;;
9970;SDS011;5026;51.494;11.974;2023-06-26T17:26:31;4.03;;;3.40;;
9970;SDS011;5026;51.494;11.974;2023-06-26T17:28:59;7.60;;;3.92;;
9970;SDS011;5026;51.494;11.974;2023-06-26T17:31:26;4.82;;;3.72;;
9970;SDS011;5026;51.494;11.974;2023-06-26T17:33:56;5.38;;;3.53;;
9970;SDS011;5026;51.494;11.974;2023-06-26T17:36:23;6.53;;;3.72;;
9970;SDS011;5026;51.494;11.974;2023-06-26T17:38:50;6.85;;;3.30;;
9970;SDS011;5026;51.494;11.974;2023-06-26T17:41:18;6.90;;;3.60;;
9970;SDS011;5026;51.494;11.974;2023-06-26T17:43:46;9.48;;;3.45;;
9970;SDS011;5026;51.494;11.974;2023-06-26T17:46:13;4.90;;;3.65;;
9970;SDS011;5026;51.494;11.974;2023-06-26T17:48:40;3.50;;;3.17;;
9970;SDS011;5026;51.494;11.974;2023-06-26T17:51:07;5.50;;;2.90;;
9970;SDS011;5026;51.494;11.974;2023-06-26T17:53:34;5.88;;;3.50;;
9970;SDS011;5026;51.494;11.974;2023-06-26T17:56:03;7.55;;;3.30;;
9970;SDS011;5026;51.494;11.974;2023-06-26T17:58:31;4.35;;;2.88;;
9970;SDS011;5026;51.494;11.974;2023-06-26T18:01:01;6.45;;;3.42;;
9970;SDS011;5026;51.494;11.974;2023-06-26T18:03:27;3.50;;;3.08;;
9970;SDS011;5026;51.494;11.974;2023-06-26T18:05:54;4.40;;;3.95;;
9970;SDS011;5026;51.494;11.974;2023-06-26T18:08:21;5.13;;;2.92;;
9970;SDS011;5026;51.494;11.974;2023-06-26T18:10:48;3.50;;;2.90;;
9970;SDS011;5026;51.494;11.974;2023-06-26T18:13:15;3.67;;;2.53;;
9970;SDS011;5026;51.494;11.974;2023-06-26T18:15:44;5.70;;;2.53;;
9970;SDS011;5026;51.494;11.974;2023-06-26T18:18:13;3.60;;;2.80;;
9970;SDS011;5026;51.494;11.974;2023-06-26T18:20:40;5.22;;;2.90;;
9970;SDS011;5026;51.494;11.974;2023-06-26T18:23:08;3.20;;;2.90;;
9970;SDS011;5026;51.494;11.974;2023-06-26T18:25:35;3.63;;;2.80;;
9970;SDS011;5026;51.494;11.974;2023-06-26T18:28:02;4.38;;;2.42;;
9970;SDS011;5026;51.494;11.974;2023-06-26T18:30:29;5.82;;;3.03;;
9970;SDS011;5026;51.494;11.974;2023-06-26T18:32:56;6.28;;;2.60;;
9970;SDS011;5026;51.494;11.974;2023-06-26T18:35:25;4.55;;;2.92;;
9970;SDS011;5026;51.494;11.974;2023-06-26T18:37:52;4.95;;;3.20;;
9970;SDS011;5026;51.494;11.974;2023-06-26T18:40:19;4.75;;;3.20;;
9970;SDS011;5026;51.494;11.974;2023-06-26T18:42:47;4.03;;;3.15;;
9970;SDS011;5026;51.494;11.974;2023-06-26T18:45:15;4.18;;;2.80;;
9970;SDS011;5026;51.494;11.974;2023-06-26T18:47:42;4.75;;;2.65;;
9970;SDS011;5026;51.494;11.974;2023-06-26T18:50:10;5.07;;;2.72;;
9970;SDS011;5026;51.494;11.974;2023-06-26T18:52:39;4.05;;;2.92;;
9970;SDS011;5026;51.494;11.974;2023-06-26T18:55:06;3.45;;;2.33;;
9970;SDS011;5026;51.494;11.974;2023-06-26T18:57:34;4.60;;;2.90;;
9970;SDS011;5026;51.494;11.974;2023-06-26T19:00:01;3.35;;;2.50;;
9970;SDS011;5026;51.494;11.974;2023-06-26T19:02:30;4.30;;;2.25;;
9970;SDS011;5026;51.494;11.974;2023-06-26T19:04:58;3.15;;;2.20;;
9970;SDS011;5026;51.494;11.974;2023-06-26T19:07:25;6.18;;;2.72;;
9970;SDS011;5026;51.494;11.974;2023-06-26T19:09:54;4.75;;;2.92;;
9970;SDS011;5026;51.494;11.974;2023-06-26T19:12:21;3.40;;;2.20;;
9970;SDS011;5026;51.494;11.974;2023-06-26T19:14:48;4.63;;;2.38;;
9970;SDS011;5026;51.494;11.974;2023-06-26T19:17:16;7.53;;;2.78;;
9970;SDS011;5026;51.494;11.974;2023-06-26T19:19:43;4.97;;;2.20;;
9970;SDS011;5026;51.494;11.974;2023-06-26T19:22:10;6.63;;;2.38;;
9970;SDS011;5026;51.494;11.974;2023-06-26T19:24:37;5.25;;;2.05;;
9970;SDS011;5026;51.494;11.974;2023-06-26T19:27:06;2.53;;;2.33;;
9970;SDS011;5026;51.494;11.974;2023-06-26T19:29:33;4.72;;;2.83;;
9970;SDS011;5026;51.494;11.974;2023-06-26T19:32:03;4.88;;;2.50;;
9970;SDS011;5026;51.494;11.974;2023-06-26T19:34:31;5.72;;;2.50;;
9970;SDS011;5026;51.494;11.974;2023-06-26T19:36:58;5.80;;;2.17;;
9970;SDS011;5026;51.494;11.974;2023-06-26T19:39:25;9.95;;;2.28;;
9970;SDS011;5026;51.494;11.974;2023-06-26T19:41:52;6.22;;;2.25;;
9970;SDS011;5026;51.494;11.974;2023-06-26T19:44:20;4.97;;;2.50;;
9970;SDS011;5026;51.494;11.974;2023-06-26T19:46:51;3.58;;;2.35;;
9970;SDS011;5026;51.494;11.974;2023-06-26T19:49:18;5.75;;;2.60;;
9970;SDS011;5026;51.494;11.974;2023-06-26T19:51:45;4.05;;;2.05;;
9970;SDS011;5026;51.494;11.974;2023-06-26T19:54:12;2.88;;;2.20;;
9970;SDS011;5026;51.494;11.974;2023-06-26T19:56:39;2.65;;;2.40;;
9970;SDS011;5026;51.494;11.974;2023-06-26T19:59:06;2.20;;;2.00;;
9970;SDS011;5026;51.494;11.974;2023-06-26T20:01:35;3.63;;;2.35;;
9970;SDS011;5026;51.494;11.974;2023-06-26T20:04:02;5.13;;;2.30;;
9970;SDS011;5026;51.494;11.974;2023-06-26T20:06:29;6.25;;;2.55;;
9970;SDS011;5026;51.494;11.974;2023-06-26T20:09:02;5.70;;;2.15;;
9970;SDS011;5026;51.494;11.974;2023-06-26T20:11:29;4.13;;;2.00;;
9970;SDS011;5026;51.494;11.974;2023-06-26T20:13:56;4.90;;;2.10;;
9970;SDS011;5026;51.494;11.974;2023-06-26T20:16:23;7.75;;;2.60;;
9970;SDS011;5026;51.494;11.974;2023-06-26T20:18:52;4.28;;;2.25;;
9970;SDS011;5026;51.494;11.974;2023-06-26T20:21:19;4.35;;;2.40;;
9970;SDS011;5026;51.494;11.974;2023-06-26T20:23:46;4.32;;;2.50;;
9970;SDS011;5026;51.494;11.974;2023-06-26T20:26:13;5.18;;;2.95;;
9970;SDS011;5026;51.494;11.974;2023-06-26T20:28:40;4.32;;;2.70;;
9970;SDS011;5026;51.494;11.974;2023-06-26T20:31:07;3.60;;;2.40;;
9970;SDS011;5026;51.494;11.974;2023-06-26T20:33:35;4.35;;;2.08;;
9970;SDS011;5026;51.494;11.974;2023-06-26T20:36:04;4.40;;;2.25;;
9970;SDS011;5026;51.494;11.974;2023-06-26T20:38:31;6.65;;;2.13;;
9970;SDS011;5026;51.494;11.974;2023-06-26T20:40:58;4.75;;;2.28;;
9970;SDS011;5026;51.494;11.974;2023-06-26T20:43:26;4.35;;;1.80;;
9970;SDS011;5026;51.494;11.974;2023-06-26T20:45:53;4.75;;;2.10;;
9970;SDS011;5026;51.494;11.974;2023-06-26T20:48:21;6.18;;;2.33;;
9970;SDS011;5026;51.494;11.974;2023-06-26T20:50:49;5.20;;;2.50;;
9970;SDS011;5026;51.494;11.974;2023-06-26T20:53:18;4.82;;;2.35;;
9970;SDS011;5026;51.494;11.974;2023-06-26T20:55:45;3.30;;;2.25;;
9970;SDS011;5026;51.494;11.974;2023-06-26T20:58:13;5.88;;;2.10;;
9970;SDS011;5026;51.494;11.974;2023-06-26T21:00:40;4.90;;;2.28;;